createdAt,value
2019-01-30T00:00:23.172Z,1.75
2019-01-30T00:01:23.158Z,1.81
2019-01-30T00:02:23.138Z,1.75
2019-01-30T00:03:23.114Z,1.80
2019-01-30T00:04:23.100Z,1.77
2019-01-30T00:05:23.095Z,1.75
2019-01-30T00:06:23.108Z,1.78
2019-01-30T00:07:23.206Z,1.74
2019-01-30T00:08:23.058Z,1.71
2019-01-30T00:09:23.048Z,1.71
2019-01-30T00:10:23.042Z,1.75
2019-01-30T00:11:23.035Z,1.75
2019-01-30T00:12:23.049Z,1.75
2019-01-30T00:13:23.011Z,1.74
2019-01-30T00:14:22.994Z,1.75
2019-01-30T00:15:22.984Z,1.74
2019-01-30T00:16:22.970Z,1.80
2019-01-30T00:17:22.978Z,1.73
2019-01-30T00:18:22.950Z,1.78
2019-01-30T00:19:22.937Z,1.71
2019-01-30T00:20:22.929Z,1.74
2019-01-30T00:21:22.917Z,1.80
2019-01-30T00:22:22.930Z,1.73
2019-01-30T00:23:22.908Z,1.74
2019-01-30T00:24:22.890Z,1.71
2019-01-30T00:25:24.098Z,1.73
2019-01-30T00:26:22.884Z,1.77
2019-01-30T00:27:22.857Z,1.80
2019-01-30T00:28:22.908Z,1.75
2019-01-30T00:29:22.849Z,1.75
2019-01-30T00:30:22.828Z,1.77
2019-01-30T00:31:22.830Z,1.67
2019-01-30T00:32:30.354Z,1.77
2019-01-30T00:33:31.784Z,1.67
2019-01-30T00:34:22.776Z,1.74
2019-01-30T00:35:22.770Z,1.73
2019-01-30T00:36:22.768Z,1.71
2019-01-30T00:37:22.753Z,1.67
2019-01-30T00:38:22.753Z,1.80
2019-01-30T00:39:22.749Z,1.78
2019-01-30T00:40:22.779Z,1.67
2019-01-30T00:41:22.726Z,1.69
2019-01-30T00:42:22.737Z,1.63
2019-01-30T00:43:22.701Z,1.78
2019-01-30T00:44:22.692Z,1.69
2019-01-30T00:45:22.682Z,1.75
2019-01-30T00:46:22.656Z,1.67
2019-01-30T00:47:22.656Z,1.67
2019-01-30T00:48:22.655Z,1.73
2019-01-30T00:49:31.304Z,1.63
2019-01-30T00:50:30.147Z,1.64
2019-01-30T00:51:31.163Z,1.64
2019-01-30T00:52:30.123Z,1.67
2019-01-30T00:53:30.110Z,1.64
2019-01-30T00:54:32.185Z,1.64
2019-01-30T00:55:30.086Z,1.64
2019-01-30T00:56:30.089Z,1.71
2019-01-30T00:57:30.058Z,1.69
2019-01-30T00:58:30.057Z,1.71
2019-01-30T00:59:32.538Z,1.66
2019-01-30T01:00:30.037Z,1.64
2019-01-30T01:01:30.034Z,1.67
2019-01-30T01:02:30.071Z,1.66
2019-01-30T01:03:31.026Z,1.64
2019-01-30T01:04:29.995Z,1.71
2019-01-30T01:05:31.192Z,1.66
2019-01-30T01:06:30.006Z,1.64
2019-01-30T01:07:29.962Z,1.64
2019-01-30T01:08:29.955Z,1.66
2019-01-30T01:09:29.942Z,1.64
2019-01-30T01:10:22.434Z,1.71
2019-01-30T01:11:29.924Z,1.66
2019-01-30T01:12:29.907Z,1.71
2019-01-30T01:13:22.359Z,1.64
2019-01-30T01:14:22.350Z,1.66
2019-01-30T01:15:22.343Z,1.71
2019-01-30T01:16:22.349Z,1.64
2019-01-30T01:17:22.345Z,1.66
2019-01-30T01:18:22.308Z,1.63
2019-01-30T01:19:22.331Z,1.71
2019-01-30T01:20:22.290Z,1.66
2019-01-30T01:21:22.295Z,1.69
2019-01-30T01:22:22.293Z,1.64
2019-01-30T01:23:22.283Z,1.69
2019-01-30T01:24:22.256Z,1.66
2019-01-30T01:25:22.277Z,1.55
2019-01-30T01:26:22.259Z,1.66
2019-01-30T01:27:22.230Z,1.64
2019-01-30T01:28:22.206Z,1.60
2019-01-30T01:29:22.202Z,1.67
2019-01-30T01:30:25.145Z,1.64
2019-01-30T01:31:22.178Z,1.75
2019-01-30T01:32:22.187Z,1.66
2019-01-30T01:33:22.167Z,1.64
2019-01-30T01:34:22.144Z,1.66
2019-01-30T01:35:22.126Z,1.71
2019-01-30T01:36:22.137Z,1.64
2019-01-30T01:37:22.133Z,1.67
2019-01-30T01:38:22.119Z,1.63
2019-01-30T01:39:22.086Z,1.67
2019-01-30T01:40:22.076Z,1.62
2019-01-30T01:41:22.073Z,1.60
2019-01-30T01:42:22.052Z,1.66
2019-01-30T01:43:22.120Z,1.59
2019-01-30T01:44:22.039Z,1.69
2019-01-30T01:45:22.026Z,1.64
2019-01-30T01:46:22.042Z,1.63
2019-01-30T01:47:21.998Z,1.55
2019-01-30T01:48:22.005Z,1.55
2019-01-30T01:49:21.989Z,1.66
2019-01-30T01:50:21.991Z,1.63
2019-01-30T01:51:21.963Z,1.56
2019-01-30T01:52:21.945Z,1.62
2019-01-30T01:53:21.955Z,1.59
2019-01-30T01:54:21.930Z,1.69
2019-01-30T01:55:21.921Z,1.55
2019-01-30T01:56:21.921Z,1.55
2019-01-30T01:57:21.892Z,1.63
2019-01-30T01:58:21.897Z,1.59
2019-01-30T01:59:21.887Z,1.60
2019-01-30T02:00:21.862Z,1.64
2019-01-30T02:01:21.851Z,1.55
2019-01-30T02:02:21.839Z,1.53
2019-01-30T02:03:21.856Z,1.59
2019-01-30T02:04:21.836Z,1.56
2019-01-30T02:05:21.805Z,1.55
2019-01-30T02:06:21.801Z,1.53
2019-01-30T02:07:21.782Z,1.56
2019-01-30T02:08:21.785Z,1.57
2019-01-30T02:09:21.826Z,1.52
2019-01-30T02:10:21.755Z,1.57
2019-01-30T02:11:21.747Z,1.52
2019-01-30T02:12:21.736Z,1.59
2019-01-30T02:13:21.724Z,1.55
2019-01-30T02:14:21.731Z,1.49
2019-01-30T02:15:21.700Z,1.55
2019-01-30T02:16:21.688Z,1.55
2019-01-30T02:17:21.681Z,1.55
2019-01-30T02:18:21.670Z,1.55
2019-01-30T02:19:21.703Z,1.57
2019-01-30T02:20:21.671Z,1.57
2019-01-30T02:21:21.656Z,1.62
2019-01-30T02:22:29.166Z,1.55
2019-01-30T02:23:21.616Z,1.53
2019-01-30T02:24:21.602Z,1.62
2019-01-30T02:25:21.618Z,1.55
2019-01-30T02:26:21.582Z,1.56
2019-01-30T02:27:21.586Z,1.53
2019-01-30T02:28:21.562Z,1.55
2019-01-30T02:29:21.580Z,1.59
2019-01-30T02:30:21.585Z,1.49
2019-01-30T02:31:21.539Z,1.57
2019-01-30T02:32:21.522Z,1.49
2019-01-30T02:33:21.529Z,1.52
2019-01-30T02:34:21.495Z,1.38
2019-01-30T02:35:21.522Z,1.48
2019-01-30T02:36:21.498Z,1.48
2019-01-30T02:37:21.470Z,1.49
2019-01-30T02:38:21.454Z,1.48
2019-01-30T02:39:21.440Z,1.48
2019-01-30T02:40:21.443Z,1.41
2019-01-30T02:41:21.448Z,1.36
2019-01-30T02:42:21.408Z,1.35
2019-01-30T02:43:21.397Z,1.38
2019-01-30T02:44:21.441Z,1.36
2019-01-30T02:45:21.380Z,1.45
2019-01-30T02:46:21.422Z,1.44
2019-01-30T02:47:21.358Z,1.41
2019-01-30T02:48:21.348Z,1.41
2019-01-30T02:49:21.338Z,1.39
2019-01-30T02:50:21.379Z,1.42
2019-01-30T02:51:21.321Z,1.38
2019-01-30T02:52:21.348Z,1.45
2019-01-30T02:53:21.288Z,1.38
2019-01-30T02:54:21.309Z,1.41
2019-01-30T02:55:21.280Z,1.39
2019-01-30T02:56:21.263Z,1.42
2019-01-30T02:57:21.264Z,1.38
2019-01-30T02:58:21.243Z,1.35
2019-01-30T02:59:21.229Z,1.36
2019-01-30T03:00:21.216Z,1.39
2019-01-30T03:01:21.223Z,1.39
2019-01-30T03:02:21.230Z,1.36
2019-01-30T03:03:21.194Z,1.31
2019-01-30T03:04:21.176Z,1.36
2019-01-30T03:05:21.193Z,1.34
2019-01-30T03:06:21.188Z,1.38
2019-01-30T03:07:21.188Z,1.28
2019-01-30T03:08:21.135Z,1.39
2019-01-30T03:09:21.131Z,1.26
2019-01-30T03:10:21.121Z,1.35
2019-01-30T03:11:21.110Z,1.35
2019-01-30T03:12:21.088Z,1.35
2019-01-30T03:13:21.109Z,1.27
2019-01-30T03:14:21.077Z,1.30
2019-01-30T03:15:21.062Z,1.31
2019-01-30T03:16:21.049Z,1.28
2019-01-30T03:17:21.049Z,1.30
2019-01-30T03:18:21.063Z,1.30
2019-01-30T03:19:21.019Z,1.30
2019-01-30T03:20:21.063Z,1.31
2019-01-30T03:21:20.993Z,1.31
2019-01-30T03:22:20.987Z,1.34
2019-01-30T03:23:21.030Z,1.28
2019-01-30T03:24:20.965Z,1.31
2019-01-30T03:25:20.981Z,1.24
2019-01-30T03:26:20.945Z,1.26
2019-01-30T03:27:20.927Z,1.31
2019-01-30T03:28:20.971Z,1.24
2019-01-30T03:29:29.823Z,1.23
2019-01-30T03:30:20.892Z,1.26
2019-01-30T03:31:20.899Z,1.21
2019-01-30T03:32:20.885Z,1.28
2019-01-30T03:33:20.863Z,1.31
2019-01-30T03:34:20.872Z,1.30
2019-01-30T03:35:20.839Z,1.30
2019-01-30T03:36:20.837Z,1.30
2019-01-30T03:37:20.817Z,1.24
2019-01-30T03:38:20.810Z,1.28
2019-01-30T03:39:20.824Z,1.28
2019-01-30T03:40:20.794Z,1.27
2019-01-30T03:41:20.775Z,1.28
2019-01-30T03:42:20.767Z,1.30
2019-01-30T03:43:20.771Z,1.26
2019-01-30T03:44:20.756Z,1.35
2019-01-30T03:45:20.782Z,1.35
2019-01-30T03:46:20.746Z,1.28
2019-01-30T03:47:20.717Z,1.27
2019-01-30T03:48:20.707Z,1.26
2019-01-30T03:49:20.706Z,1.26
2019-01-30T03:50:20.683Z,1.21
2019-01-30T03:51:20.689Z,1.24
2019-01-30T03:52:20.682Z,1.27
2019-01-30T03:53:20.655Z,1.30
2019-01-30T03:54:20.641Z,1.27
2019-01-30T03:55:20.634Z,1.28
2019-01-30T03:56:20.657Z,1.35
2019-01-30T03:57:20.620Z,1.30
2019-01-30T03:58:20.596Z,1.28
2019-01-30T03:59:20.625Z,1.30
2019-01-30T04:00:20.578Z,1.34
2019-01-30T04:01:26.757Z,1.27
2019-01-30T04:02:21.550Z,1.27
2019-01-30T04:03:20.544Z,1.31
2019-01-30T04:04:20.553Z,1.31
2019-01-30T04:05:20.518Z,1.30
2019-01-30T04:06:20.514Z,1.27
2019-01-30T04:07:20.521Z,1.35
2019-01-30T04:08:20.498Z,1.30
2019-01-30T04:09:20.476Z,1.30
2019-01-30T04:10:20.463Z,1.31
2019-01-30T04:11:20.474Z,1.30
2019-01-30T04:12:20.498Z,1.26
2019-01-30T04:13:20.445Z,1.21
2019-01-30T04:14:20.434Z,1.28
2019-01-30T04:15:20.417Z,1.34
2019-01-30T04:16:20.399Z,1.36
2019-01-30T04:17:20.395Z,1.36
2019-01-30T04:18:20.416Z,1.34
2019-01-30T04:19:20.406Z,1.35
2019-01-30T04:20:20.362Z,1.28
2019-01-30T04:21:20.345Z,1.30
2019-01-30T04:22:20.343Z,1.36
2019-01-30T04:23:20.351Z,1.28
2019-01-30T04:24:20.342Z,1.38
2019-01-30T04:25:20.308Z,1.34
2019-01-30T04:26:20.329Z,1.38
2019-01-30T04:27:20.295Z,1.28
2019-01-30T04:28:20.297Z,1.34
2019-01-30T04:29:20.261Z,1.34
2019-01-30T04:30:20.267Z,1.30
2019-01-30T04:31:20.262Z,1.31
2019-01-30T04:32:20.273Z,1.27
2019-01-30T04:33:20.237Z,1.31
2019-01-30T04:34:20.252Z,1.28
2019-01-30T04:35:20.201Z,1.28
2019-01-30T04:36:20.184Z,1.24
2019-01-30T04:37:20.273Z,1.34
2019-01-30T04:38:20.169Z,1.35
2019-01-30T04:39:20.183Z,1.30
2019-01-30T04:40:20.140Z,1.28
2019-01-30T04:41:20.139Z,1.27
2019-01-30T04:42:20.123Z,1.28
2019-01-30T04:43:20.104Z,1.38
2019-01-30T04:44:20.126Z,1.27
2019-01-30T04:45:20.101Z,1.36
2019-01-30T04:46:20.078Z,1.35
2019-01-30T04:47:20.066Z,1.27
2019-01-30T04:48:20.064Z,1.30
2019-01-30T04:49:20.073Z,1.27
2019-01-30T04:50:20.082Z,1.34
2019-01-30T04:51:20.074Z,1.38
2019-01-30T04:52:20.015Z,1.30
2019-01-30T04:53:19.998Z,1.35
2019-01-30T04:54:19.990Z,1.26
2019-01-30T04:55:20.015Z,1.34
2019-01-30T04:56:20.034Z,1.26
2019-01-30T04:57:19.978Z,1.24
2019-01-30T04:58:19.954Z,1.26
2019-01-30T04:59:19.939Z,1.20
2019-01-30T05:00:19.941Z,1.31
2019-01-30T05:01:19.921Z,1.28
2019-01-30T05:02:19.924Z,1.31
2019-01-30T05:03:19.890Z,1.28
2019-01-30T05:04:19.901Z,1.35
2019-01-30T05:05:19.880Z,1.26
2019-01-30T05:06:19.868Z,1.30
2019-01-30T05:07:19.857Z,1.36
2019-01-30T05:08:19.864Z,1.30
2019-01-30T05:09:19.841Z,1.27
2019-01-30T05:10:19.821Z,1.27
2019-01-30T05:11:19.815Z,1.27
2019-01-30T05:12:19.980Z,1.30
2019-01-30T05:13:19.953Z,1.31
2019-01-30T05:14:19.797Z,1.24
2019-01-30T05:15:19.770Z,1.34
2019-01-30T05:16:19.761Z,1.28
2019-01-30T05:17:19.746Z,1.28
2019-01-30T05:18:19.748Z,1.30
2019-01-30T05:19:19.759Z,1.30
2019-01-30T05:20:19.723Z,1.30
2019-01-30T05:21:19.709Z,1.30
2019-01-30T05:22:19.693Z,1.34
2019-01-30T05:23:19.680Z,1.28
2019-01-30T05:24:19.690Z,1.31
2019-01-30T05:25:19.661Z,1.38
2019-01-30T05:26:19.692Z,1.35
2019-01-30T05:27:19.673Z,1.34
2019-01-30T05:28:19.634Z,1.30
2019-01-30T05:29:19.643Z,1.34
2019-01-30T05:30:19.661Z,1.28
2019-01-30T05:31:21.932Z,1.26
2019-01-30T05:32:19.588Z,1.34
2019-01-30T05:33:19.580Z,1.27
2019-01-30T05:34:19.583Z,1.30
2019-01-30T05:35:19.572Z,1.30
2019-01-30T05:36:19.545Z,1.30
2019-01-30T05:37:19.531Z,1.30
2019-01-30T05:38:19.559Z,1.30
2019-01-30T05:39:19.511Z,1.27
2019-01-30T05:40:19.524Z,1.30
2019-01-30T05:41:19.493Z,1.35
2019-01-30T05:42:19.482Z,1.34
2019-01-30T05:43:19.481Z,1.34
2019-01-30T05:44:19.458Z,1.36
2019-01-30T05:45:19.449Z,1.34
2019-01-30T05:46:19.458Z,1.31
2019-01-30T05:47:19.517Z,1.34
2019-01-30T05:48:19.432Z,1.27
2019-01-30T05:49:19.457Z,1.26
2019-01-30T05:50:19.419Z,1.27
2019-01-30T05:51:19.485Z,1.31
2019-01-30T05:52:19.418Z,1.36
2019-01-30T05:53:19.504Z,1.28
2019-01-30T05:54:19.504Z,1.38
2019-01-30T05:55:19.356Z,1.34
2019-01-30T05:56:20.222Z,1.36
2019-01-30T05:57:19.360Z,1.34
2019-01-30T05:58:19.348Z,1.35
2019-01-30T05:59:19.296Z,1.31
2019-01-30T06:00:19.301Z,1.34
2019-01-30T06:01:19.304Z,1.36
2019-01-30T06:02:19.261Z,1.35
2019-01-30T06:03:19.271Z,1.28
2019-01-30T06:04:19.254Z,1.36
2019-01-30T06:05:19.229Z,1.34
2019-01-30T06:06:20.088Z,1.36
2019-01-30T06:07:19.243Z,1.36
2019-01-30T06:08:19.263Z,1.35
2019-01-30T06:09:19.194Z,1.31
2019-01-30T06:10:19.177Z,1.36
2019-01-30T06:11:19.194Z,1.31
2019-01-30T06:12:19.154Z,1.34
2019-01-30T06:13:19.171Z,1.38
2019-01-30T06:14:19.148Z,1.36
2019-01-30T06:15:26.683Z,1.42
2019-01-30T06:16:19.110Z,1.36
2019-01-30T06:17:19.103Z,1.42
2019-01-30T06:18:27.845Z,1.34
2019-01-30T06:19:26.661Z,1.36
2019-01-30T06:20:26.621Z,1.41
2019-01-30T06:21:26.615Z,1.42
2019-01-30T06:22:19.044Z,1.38
2019-01-30T06:23:19.039Z,1.42
2019-01-30T06:24:19.043Z,1.39
2019-01-30T06:25:19.032Z,1.45
2019-01-30T06:26:19.016Z,1.39
2019-01-30T06:27:19.002Z,1.39
2019-01-30T06:28:18.986Z,1.42
2019-01-30T06:29:18.995Z,1.41
2019-01-30T06:30:26.515Z,1.41
2019-01-30T06:31:18.953Z,1.36
2019-01-30T06:32:21.896Z,1.38
2019-01-30T06:33:26.496Z,1.38
2019-01-30T06:34:18.922Z,1.38
2019-01-30T06:35:18.937Z,1.42
2019-01-30T06:36:26.456Z,1.42
2019-01-30T06:37:26.430Z,1.35
2019-01-30T06:38:26.429Z,1.30
2019-01-30T06:39:26.426Z,1.28
2019-01-30T06:40:28.685Z,1.18
2019-01-30T06:41:26.386Z,1.09
2019-01-30T06:42:26.399Z,1.00
2019-01-30T06:43:26.367Z,0.90
2019-01-30T06:44:27.376Z,0.80
2019-01-30T06:45:28.716Z,0.73
2019-01-30T06:46:28.441Z,0.67
2019-01-30T06:47:27.337Z,0.55
2019-01-30T06:48:18.771Z,0.50
2019-01-30T06:49:26.323Z,0.55
2019-01-30T06:50:26.300Z,0.51
2019-01-30T06:51:27.589Z,0.55
2019-01-30T06:52:27.279Z,0.59
2019-01-30T06:53:26.263Z,0.45
2019-01-30T06:54:26.254Z,0.43
2019-01-30T06:55:26.239Z,0.43
2019-01-30T06:56:27.298Z,0.44
2019-01-30T06:57:26.223Z,0.25
2019-01-30T06:58:27.223Z,0.30
2019-01-30T06:59:18.659Z,0.29
2019-01-30T07:00:18.645Z,0.29
2019-01-30T07:01:18.641Z,0.27
2019-01-30T07:02:18.641Z,0.23
2019-01-30T07:03:18.611Z,0.23
2019-01-30T07:04:18.607Z,0.27
2019-01-30T07:05:18.592Z,0.25
2019-01-30T07:06:18.584Z,0.14
2019-01-30T07:07:18.595Z,0.17
2019-01-30T07:08:18.572Z,0.17
2019-01-30T07:09:18.554Z,0.25
2019-01-30T07:10:18.551Z,0.23
2019-01-30T07:11:18.532Z,0.11
2019-01-30T07:12:18.521Z,0.18
2019-01-30T07:13:18.609Z,0.18
2019-01-30T07:14:18.512Z,0.12
2019-01-30T07:15:28.302Z,0.11
2019-01-30T07:16:18.473Z,0.08
2019-01-30T07:17:18.460Z,0.05
2019-01-30T07:18:18.500Z,0.05
2019-01-30T07:19:18.451Z,0.14
2019-01-30T07:20:18.431Z,0.08
2019-01-30T07:21:18.421Z,0.12
2019-01-30T07:22:18.433Z,0.02
2019-01-30T07:23:18.405Z,0.07
2019-01-30T07:24:18.409Z,0.02
2019-01-30T07:25:18.375Z,0.08
2019-01-30T07:26:18.371Z,0.04
2019-01-30T07:27:18.369Z,-0.03
2019-01-30T07:28:18.379Z,0.00
2019-01-30T07:29:26.934Z,0.00
2019-01-30T07:30:18.329Z,-0.04
2019-01-30T07:31:19.287Z,0.02
2019-01-30T07:32:26.860Z,-0.01
2019-01-30T07:33:25.845Z,0.05
2019-01-30T07:34:27.031Z,0.08
2019-01-30T07:35:18.268Z,0.11
2019-01-30T07:36:18.262Z,0.05
2019-01-30T07:37:18.251Z,0.00
2019-01-30T07:38:18.242Z,0.02
2019-01-30T07:39:18.277Z,0.07
2019-01-30T07:40:18.249Z,0.08
2019-01-30T07:41:18.225Z,0.07
2019-01-30T07:42:18.197Z,0.07
2019-01-30T07:43:18.192Z,0.07
2019-01-30T07:44:18.183Z,0.08
2019-01-30T07:45:18.165Z,0.07
2019-01-30T07:46:18.169Z,0.07
2019-01-30T07:47:18.142Z,0.11
2019-01-30T07:48:18.135Z,0.11
2019-01-30T07:49:18.127Z,0.04
2019-01-30T07:50:18.121Z,0.08
2019-01-30T07:51:18.144Z,0.09
2019-01-30T07:52:26.864Z,0.12
2019-01-30T07:53:18.081Z,0.14
2019-01-30T07:54:18.066Z,0.15
2019-01-30T07:55:18.056Z,0.17
2019-01-30T07:56:18.056Z,0.26
2019-01-30T07:57:18.077Z,0.15
2019-01-30T07:58:18.023Z,0.12
2019-01-30T07:59:18.029Z,0.23
2019-01-30T08:00:18.048Z,0.20
2019-01-30T08:01:18.050Z,0.22
2019-01-30T08:02:17.986Z,0.20
2019-01-30T08:03:17.995Z,0.20
2019-01-30T08:04:17.974Z,0.22
2019-01-30T08:05:17.953Z,0.22
2019-01-30T08:06:19.565Z,0.18
2019-01-30T08:07:17.932Z,0.22
2019-01-30T08:08:17.939Z,0.17
2019-01-30T08:09:17.912Z,0.29
2019-01-30T08:10:17.898Z,0.17
2019-01-30T08:11:17.903Z,0.25
2019-01-30T08:12:17.885Z,0.23
2019-01-30T08:13:17.874Z,0.15
2019-01-30T08:14:17.970Z,0.17
2019-01-30T08:15:17.863Z,0.18
2019-01-30T08:16:17.860Z,0.23
2019-01-30T08:17:17.825Z,0.26
2019-01-30T08:18:17.851Z,0.23
2019-01-30T08:19:17.855Z,0.26
2019-01-30T08:20:17.791Z,0.29
2019-01-30T08:21:17.915Z,0.30
2019-01-30T08:23:28.288Z,0.29
2019-01-30T08:24:28.169Z,0.35
2019-01-30T08:25:28.325Z,0.32
2019-01-30T08:26:28.101Z,0.29
2019-01-30T08:27:28.457Z,0.30
2019-01-30T08:28:28.069Z,0.25
2019-01-30T08:29:27.953Z,0.37
2019-01-30T08:30:28.101Z,0.44
2019-01-30T08:31:27.945Z,0.44
2019-01-30T08:32:28.254Z,0.45
2019-01-30T08:33:28.152Z,0.40
2019-01-30T08:34:27.898Z,0.48
2019-01-30T08:35:27.887Z,0.56
2019-01-30T08:36:27.932Z,0.51
2019-01-30T08:37:27.887Z,0.51
2019-01-30T08:38:27.853Z,0.55
2019-01-30T08:39:27.846Z,0.51
2019-01-30T08:40:27.835Z,0.51
2019-01-30T08:41:27.837Z,0.60
2019-01-30T08:42:27.911Z,0.67
2019-01-30T08:43:27.805Z,0.50
2019-01-30T08:44:27.796Z,0.50
2019-01-30T08:45:27.788Z,0.55
2019-01-30T08:46:27.778Z,0.55
2019-01-30T08:47:27.796Z,0.51
2019-01-30T08:48:30.189Z,0.59
2019-01-30T08:49:27.816Z,0.53
2019-01-30T08:50:27.727Z,0.59
2019-01-30T08:51:27.715Z,0.59
2019-01-30T08:52:27.709Z,0.63
2019-01-30T08:53:27.716Z,0.66
2019-01-30T08:54:27.704Z,0.62
2019-01-30T08:55:27.677Z,0.67
2019-01-30T08:56:27.769Z,0.55
2019-01-30T08:57:27.694Z,0.53
2019-01-30T08:58:27.688Z,0.60
2019-01-30T08:59:27.663Z,0.69
2019-01-30T09:00:27.637Z,0.64
2019-01-30T09:01:27.626Z,0.56
2019-01-30T09:02:27.599Z,0.60
2019-01-30T09:03:27.595Z,0.51
2019-01-30T09:04:27.594Z,0.69
2019-01-30T09:05:27.586Z,0.60
2019-01-30T09:06:36.125Z,0.67
2019-01-30T09:07:43.945Z,0.64
2019-01-30T09:09:37.779Z,0.72
2019-01-30T09:10:46.314Z,0.70
2019-01-30T09:11:37.738Z,0.73
2019-01-30T09:12:46.316Z,0.73
2019-01-30T09:13:45.272Z,0.69
2019-01-30T09:14:37.701Z,0.76
2019-01-30T09:15:37.725Z,0.74
2019-01-30T09:16:37.685Z,0.81
2019-01-30T09:17:37.677Z,0.74
2019-01-30T09:18:37.673Z,0.76
2019-01-30T09:19:37.660Z,0.73
2019-01-30T09:20:46.631Z,0.76
2019-01-30T09:21:37.631Z,0.70
2019-01-30T09:22:37.623Z,0.78
2019-01-30T09:23:37.631Z,0.81
2019-01-30T09:24:45.153Z,0.78
2019-01-30T09:25:45.321Z,0.84
2019-01-30T09:26:37.600Z,0.90
2019-01-30T09:27:37.570Z,0.88
2019-01-30T09:28:37.560Z,0.82
2019-01-30T09:29:37.588Z,0.85
2019-01-30T09:30:37.583Z,0.88
2019-01-30T09:31:45.093Z,0.81
2019-01-30T09:32:37.516Z,0.92
2019-01-30T09:33:37.505Z,0.98
2019-01-30T09:34:37.557Z,0.88
2019-01-30T09:35:37.493Z,0.99
2019-01-30T09:36:37.498Z,0.96
2019-01-30T09:37:37.500Z,0.99
2019-01-30T09:38:37.592Z,1.00
2019-01-30T09:39:37.484Z,1.02
2019-01-30T09:40:37.436Z,0.96
2019-01-30T09:41:37.423Z,0.94
2019-01-30T09:42:37.458Z,0.92
2019-01-30T09:43:37.452Z,1.00
2019-01-30T09:44:37.396Z,1.02
2019-01-30T09:45:37.401Z,0.98
2019-01-30T09:46:37.370Z,1.02
2019-01-30T09:47:37.371Z,0.99
2019-01-30T09:48:37.440Z,1.02
2019-01-30T09:49:37.357Z,1.02
2019-01-30T09:50:37.331Z,1.05
2019-01-30T09:51:37.355Z,1.08
2019-01-30T09:52:37.308Z,1.13
2019-01-30T09:53:37.296Z,1.03
2019-01-30T09:54:37.361Z,1.06
2019-01-30T09:55:37.278Z,1.08
2019-01-30T09:56:37.268Z,1.02
2019-01-30T09:57:37.257Z,1.17
2019-01-30T09:58:37.251Z,1.08
2019-01-30T09:59:37.260Z,1.20
2019-01-30T10:00:37.223Z,1.09
2019-01-30T10:01:37.232Z,1.12
2019-01-30T10:02:37.202Z,1.13
2019-01-30T10:03:37.192Z,1.10
2019-01-30T10:04:37.205Z,1.10
2019-01-30T10:05:37.174Z,1.17
2019-01-30T10:06:37.173Z,1.09
2019-01-30T10:07:37.159Z,1.16
2019-01-30T10:08:37.165Z,1.16
2019-01-30T10:09:37.729Z,1.16
2019-01-30T10:10:37.146Z,1.16
2019-01-30T10:11:37.104Z,1.10
2019-01-30T10:12:37.098Z,1.16
2019-01-30T10:13:37.472Z,1.13
2019-01-30T10:14:37.076Z,1.16
2019-01-30T10:15:37.095Z,1.12
2019-01-30T10:16:37.061Z,1.13
2019-01-30T10:17:37.051Z,1.12
2019-01-30T10:18:37.035Z,1.18
2019-01-30T10:19:40.043Z,1.16
2019-01-30T10:20:37.018Z,1.10
2019-01-30T10:21:37.055Z,1.17
2019-01-30T10:22:37.008Z,1.10
2019-01-30T10:23:36.985Z,1.13
2019-01-30T10:24:36.981Z,1.21
2019-01-30T10:25:36.961Z,1.18
2019-01-30T10:26:36.954Z,1.13
2019-01-30T10:27:36.956Z,1.24
2019-01-30T10:28:44.472Z,1.24
2019-01-30T10:29:36.960Z,1.24
2019-01-30T10:30:36.907Z,1.17
2019-01-30T10:31:36.898Z,1.26
2019-01-30T10:32:36.907Z,1.24
2019-01-30T10:33:46.035Z,1.24
2019-01-30T10:34:37.868Z,1.09
2019-01-30T10:35:36.900Z,1.21
2019-01-30T10:36:36.841Z,1.20
2019-01-30T10:37:36.834Z,1.20
2019-01-30T10:38:36.847Z,1.17
2019-01-30T10:39:36.827Z,1.13
2019-01-30T10:40:36.819Z,1.13
2019-01-30T10:41:36.820Z,1.16
2019-01-30T10:42:36.797Z,1.13
2019-01-30T10:43:36.792Z,1.17
2019-01-30T10:44:36.758Z,1.18
2019-01-30T10:45:38.353Z,1.10
2019-01-30T10:46:36.760Z,1.18
2019-01-30T10:47:36.726Z,1.09
2019-01-30T10:48:36.715Z,1.18
2019-01-30T10:49:36.877Z,1.12
2019-01-30T10:50:36.691Z,1.17
2019-01-30T10:51:36.682Z,1.18
2019-01-30T10:52:36.679Z,1.17
2019-01-30T10:53:36.692Z,1.18
2019-01-30T10:54:36.654Z,1.16
2019-01-30T10:55:36.678Z,1.17
2019-01-30T10:56:36.631Z,1.13
2019-01-30T10:57:36.722Z,1.16
2019-01-30T10:58:36.607Z,1.10
2019-01-30T10:59:36.609Z,1.16
2019-01-30T11:00:36.610Z,1.18
2019-01-30T11:01:36.584Z,1.18
2019-01-30T11:02:36.573Z,1.16
2019-01-30T11:03:45.107Z,1.20
2019-01-30T11:04:36.546Z,1.16
2019-01-30T11:05:36.573Z,1.18
2019-01-30T11:06:36.549Z,1.13
2019-01-30T11:07:36.510Z,1.12
2019-01-30T11:08:36.501Z,1.06
2019-01-30T11:09:36.503Z,1.12
2019-01-30T11:10:36.486Z,1.17
2019-01-30T11:11:36.510Z,1.10
2019-01-30T11:12:36.478Z,1.17
2019-01-30T11:13:36.452Z,1.17
2019-01-30T11:14:36.462Z,1.16
2019-01-30T11:15:36.438Z,1.18
2019-01-30T11:16:36.424Z,1.16
2019-01-30T11:17:36.434Z,1.21
2019-01-30T11:18:36.395Z,1.10
2019-01-30T11:19:36.383Z,1.13
2019-01-30T11:20:36.375Z,1.17
2019-01-30T11:21:36.382Z,1.16
2019-01-30T11:22:36.396Z,1.20
2019-01-30T11:23:36.346Z,1.16
2019-01-30T11:24:36.330Z,1.31
2019-01-30T11:25:36.320Z,1.28
2019-01-30T11:26:36.633Z,1.21
2019-01-30T11:27:36.313Z,1.20
2019-01-30T11:28:36.308Z,1.28
2019-01-30T11:29:36.278Z,1.21
2019-01-30T11:30:36.304Z,1.26
2019-01-30T11:31:36.263Z,1.26
2019-01-30T11:32:43.804Z,1.26
2019-01-30T11:33:36.279Z,1.30
2019-01-30T11:34:36.225Z,1.30
2019-01-30T11:35:36.244Z,1.30
2019-01-30T11:36:36.203Z,1.34
2019-01-30T11:37:36.192Z,1.36
2019-01-30T11:38:36.188Z,1.31
2019-01-30T11:39:36.206Z,1.34
2019-01-30T11:40:36.205Z,1.27
2019-01-30T11:41:36.195Z,1.34
2019-01-30T11:42:36.139Z,1.35
2019-01-30T11:43:36.144Z,1.28
2019-01-30T11:44:36.151Z,1.28
2019-01-30T11:45:36.136Z,1.23
2019-01-30T11:46:36.141Z,1.26
2019-01-30T11:47:36.089Z,1.18
2019-01-30T11:48:36.083Z,1.24
2019-01-30T11:49:36.124Z,1.18
2019-01-30T11:50:36.078Z,1.17
2019-01-30T11:51:36.050Z,1.13
2019-01-30T11:52:36.046Z,1.17
2019-01-30T11:53:36.084Z,1.18
2019-01-30T11:54:38.816Z,1.17
2019-01-30T11:55:36.032Z,1.16
2019-01-30T11:56:36.031Z,1.10
2019-01-30T11:57:36.017Z,1.16
2019-01-30T11:58:43.570Z,1.23
2019-01-30T11:59:35.978Z,1.18
2019-01-30T12:00:36.000Z,1.17
2019-01-30T12:01:35.949Z,1.12
2019-01-30T12:02:35.962Z,1.10
2019-01-30T12:03:35.928Z,1.20
2019-01-30T12:04:35.921Z,1.20
2019-01-30T12:05:35.904Z,1.12
2019-01-30T12:06:35.918Z,1.23
2019-01-30T12:07:35.938Z,1.24
2019-01-30T12:08:35.885Z,1.23
2019-01-30T12:09:35.863Z,1.24
2019-01-30T12:10:35.854Z,1.23
2019-01-30T12:11:35.867Z,1.18
2019-01-30T12:12:35.853Z,1.10
2019-01-30T12:13:35.830Z,1.21
2019-01-30T12:14:35.838Z,1.17
2019-01-30T12:16:32.741Z,1.24
2019-01-30T12:17:32.740Z,1.12
2019-01-30T12:18:32.713Z,1.16
2019-01-30T12:19:32.728Z,1.18
2019-01-30T12:20:32.690Z,1.16
2019-01-30T12:21:32.676Z,1.10
2019-01-30T12:22:32.703Z,1.18
2019-01-30T12:23:32.689Z,1.24
2019-01-30T12:24:32.647Z,1.18
2019-01-30T12:25:32.651Z,1.26
2019-01-30T12:26:32.632Z,1.17
2019-01-30T12:27:32.662Z,1.20
2019-01-30T12:28:32.603Z,1.17
2019-01-30T12:29:32.630Z,1.20
2019-01-30T12:30:32.584Z,1.27
2019-01-30T12:31:32.627Z,1.21
2019-01-30T12:32:32.597Z,1.27
2019-01-30T12:33:32.593Z,1.27
2019-01-30T12:34:32.585Z,1.35
2019-01-30T12:35:32.677Z,1.24
2019-01-30T12:36:32.515Z,1.20
2019-01-30T12:37:32.516Z,1.24
2019-01-30T12:38:32.519Z,1.31
2019-01-30T12:39:32.482Z,1.30
2019-01-30T12:40:32.526Z,1.31
2019-01-30T12:41:32.498Z,1.20
2019-01-30T12:42:32.452Z,1.28
2019-01-30T12:43:32.477Z,1.30
2019-01-30T12:44:33.601Z,1.28
2019-01-30T12:45:32.423Z,1.30
2019-01-30T12:46:32.410Z,1.34
2019-01-30T12:47:32.403Z,1.24
2019-01-30T12:48:32.389Z,1.38
2019-01-30T12:49:32.396Z,1.31
2019-01-30T12:50:32.368Z,1.36
2019-01-30T12:51:39.968Z,1.30
2019-01-30T12:52:32.352Z,1.35
2019-01-30T12:53:34.759Z,1.24
2019-01-30T12:54:32.353Z,1.38
2019-01-30T12:55:32.341Z,1.35
2019-01-30T12:56:32.338Z,1.36
2019-01-30T12:57:32.297Z,1.41
2019-01-30T12:58:32.319Z,1.42
2019-01-30T12:59:32.317Z,1.30
2019-01-30T13:00:32.272Z,1.27
2019-01-30T13:01:32.258Z,1.39
2019-01-30T13:02:32.244Z,1.42
2019-01-30T13:03:32.242Z,1.39
2019-01-30T13:04:38.602Z,1.26
2019-01-30T13:05:33.234Z,1.41
2019-01-30T13:06:32.202Z,1.42
2019-01-30T13:07:32.190Z,1.41
2019-01-30T13:08:32.186Z,1.45
2019-01-30T13:09:32.209Z,1.35
2019-01-30T13:10:32.189Z,1.35
2019-01-30T13:11:32.151Z,1.39
2019-01-30T13:12:32.203Z,1.34
2019-01-30T13:13:32.125Z,1.28
2019-01-30T13:14:32.122Z,1.27
2019-01-30T13:15:32.105Z,1.38
2019-01-30T13:16:32.112Z,1.34
2019-01-30T13:17:32.080Z,1.34
2019-01-30T13:18:32.068Z,1.31
2019-01-30T13:19:32.063Z,1.21
2019-01-30T13:20:32.052Z,1.31
2019-01-30T13:21:32.071Z,1.31